sensor_id;sensor_type;location;lat;lon;timestamp;P1;durP1;ratioP1;P2;durP2;ratioP2
8849;SDS011;5638;50.860;4.698;2022-11-13T00:01:16;11.47;;;8.20;;
8849;SDS011;5638;50.860;4.698;2022-11-13T00:03:44;10.73;;;8.30;;
8849;SDS011;5638;50.860;4.698;2022-11-13T00:06:11;12.77;;;8.20;;
8849;SDS011;5638;50.860;4.698;2022-11-13T00:08:38;10.13;;;7.67;;
8849;SDS011;5638;50.860;4.698;2022-11-13T00:11:05;8.30;;;7.20;;
8849;SDS011;5638;50.860;4.698;2022-11-13T00:13:38;10.97;;;8.00;;
8849;SDS011;5638;50.860;4.698;2022-11-13T00:16:06;10.67;;;7.90;;
8849;SDS011;5638;50.860;4.698;2022-11-13T00:18:35;10.00;;;7.50;;
8849;SDS011;5638;50.860;4.698;2022-11-13T00:23:52;12.03;;;6.93;;
8849;SDS011;5638;50.860;4.698;2022-11-13T00:26:24;11.80;;;7.20;;
8849;SDS011;5638;50.860;4.698;2022-11-13T00:28:53;8.50;;;6.60;;
8849;SDS011;5638;50.860;4.698;2022-11-13T00:31:26;11.30;;;7.20;;
8849;SDS011;5638;50.860;4.698;2022-11-13T00:33:53;9.67;;;6.70;;
8849;SDS011;5638;50.860;4.698;2022-11-13T00:36:23;8.10;;;6.53;;
8849;SDS011;5638;50.860;4.698;2022-11-13T00:38:51;8.47;;;6.60;;
8849;SDS011;5638;50.860;4.698;2022-11-13T00:41:18;10.33;;;7.73;;
8849;SDS011;5638;50.860;4.698;2022-11-13T00:43:43;9.33;;;7.10;;
8849;SDS011;5638;50.860;4.698;2022-11-13T00:46:09;8.73;;;6.53;;
8849;SDS011;5638;50.860;4.698;2022-11-13T00:48:35;10.23;;;6.30;;
8849;SDS011;5638;50.860;4.698;2022-11-13T00:51:02;16.93;;;6.30;;
8849;SDS011;5638;50.860;4.698;2022-11-13T00:53:28;9.07;;;6.47;;
8849;SDS011;5638;50.860;4.698;2022-11-13T00:55:54;7.83;;;6.17;;
8849;SDS011;5638;50.860;4.698;2022-11-13T00:58:20;7.73;;;6.20;;
8849;SDS011;5638;50.860;4.698;2022-11-13T01:00:46;7.43;;;6.10;;
8849;SDS011;5638;50.860;4.698;2022-11-13T01:03:13;7.43;;;6.00;;
8849;SDS011;5638;50.860;4.698;2022-11-13T01:05:42;6.10;;;5.43;;
8849;SDS011;5638;50.860;4.698;2022-11-13T01:08:12;6.27;;;5.33;;
8849;SDS011;5638;50.860;4.698;2022-11-13T01:10:44;8.33;;;5.40;;
8849;SDS011;5638;50.860;4.698;2022-11-13T01:13:12;7.37;;;5.60;;
8849;SDS011;5638;50.860;4.698;2022-11-13T01:15:39;6.93;;;5.47;;
8849;SDS011;5638;50.860;4.698;2022-11-13T01:18:07;7.63;;;5.30;;
8849;SDS011;5638;50.860;4.698;2022-11-13T01:20:34;6.40;;;4.97;;
8849;SDS011;5638;50.860;4.698;2022-11-13T01:22:59;8.17;;;5.53;;
8849;SDS011;5638;50.860;4.698;2022-11-13T01:25:26;7.60;;;5.20;;
8849;SDS011;5638;50.860;4.698;2022-11-13T01:27:53;7.33;;;5.10;;
8849;SDS011;5638;50.860;4.698;2022-11-13T01:30:19;7.50;;;4.93;;
8849;SDS011;5638;50.860;4.698;2022-11-13T01:32:45;6.43;;;4.80;;
8849;SDS011;5638;50.860;4.698;2022-11-13T01:35:10;6.50;;;5.07;;
8849;SDS011;5638;50.860;4.698;2022-11-13T01:37:36;7.03;;;5.03;;
8849;SDS011;5638;50.860;4.698;2022-11-13T01:40:02;7.90;;;4.83;;
8849;SDS011;5638;50.860;4.698;2022-11-13T01:42:30;6.50;;;5.33;;
8849;SDS011;5638;50.860;4.698;2022-11-13T01:44:58;5.77;;;4.67;;
8849;SDS011;5638;50.860;4.698;2022-11-13T01:47:26;7.60;;;4.80;;
8849;SDS011;5638;50.860;4.698;2022-11-13T01:49:56;6.40;;;5.00;;
8849;SDS011;5638;50.860;4.698;2022-11-13T01:52:30;6.87;;;4.93;;
8849;SDS011;5638;50.860;4.698;2022-11-13T01:55:04;6.63;;;5.47;;
8849;SDS011;5638;50.860;4.698;2022-11-13T01:57:37;5.97;;;4.90;;
8849;SDS011;5638;50.860;4.698;2022-11-13T02:00:06;7.33;;;5.37;;
8849;SDS011;5638;50.860;4.698;2022-11-13T02:02:35;8.03;;;5.90;;
8849;SDS011;5638;50.860;4.698;2022-11-13T02:05:02;7.33;;;5.33;;
8849;SDS011;5638;50.860;4.698;2022-11-13T02:07:32;7.13;;;5.00;;
8849;SDS011;5638;50.860;4.698;2022-11-13T02:09:58;10.03;;;5.90;;
8849;SDS011;5638;50.860;4.698;2022-11-13T02:12:35;7.80;;;5.80;;
8849;SDS011;5638;50.860;4.698;2022-11-13T02:15:07;12.37;;;7.20;;
8849;SDS011;5638;50.860;4.698;2022-11-13T02:17:41;9.23;;;5.70;;
8849;SDS011;5638;50.860;4.698;2022-11-13T02:21:10;7.43;;;5.40;;
8849;SDS011;5638;50.860;4.698;2022-11-13T02:26:14;9.60;;;6.23;;
8849;SDS011;5638;50.860;4.698;2022-11-13T02:28:44;12.03;;;6.97;;
8849;SDS011;5638;50.860;4.698;2022-11-13T02:31:10;9.47;;;7.07;;
8849;SDS011;5638;50.860;4.698;2022-11-13T02:33:38;11.07;;;7.47;;
8849;SDS011;5638;50.860;4.698;2022-11-13T02:36:05;10.10;;;6.70;;
8849;SDS011;5638;50.860;4.698;2022-11-13T02:38:35;7.97;;;6.13;;
8849;SDS011;5638;50.860;4.698;2022-11-13T02:41:05;9.50;;;6.40;;
8849;SDS011;5638;50.860;4.698;2022-11-13T02:43:31;6.80;;;5.90;;
8849;SDS011;5638;50.860;4.698;2022-11-13T02:45:56;10.13;;;6.37;;
8849;SDS011;5638;50.860;4.698;2022-11-13T02:48:22;10.43;;;6.67;;
8849;SDS011;5638;50.860;4.698;2022-11-13T02:50:48;8.67;;;6.30;;
8849;SDS011;5638;50.860;4.698;2022-11-13T02:53:14;7.83;;;5.87;;
8849;SDS011;5638;50.860;4.698;2022-11-13T02:55:40;10.00;;;7.13;;
8849;SDS011;5638;50.860;4.698;2022-11-13T02:58:06;8.40;;;6.07;;
8849;SDS011;5638;50.860;4.698;2022-11-13T03:00:31;8.03;;;6.60;;
8849;SDS011;5638;50.860;4.698;2022-11-13T03:02:57;7.23;;;5.83;;
8849;SDS011;5638;50.860;4.698;2022-11-13T03:05:23;8.40;;;6.47;;
8849;SDS011;5638;50.860;4.698;2022-11-13T03:07:49;9.20;;;6.73;;
8849;SDS011;5638;50.860;4.698;2022-11-13T03:10:14;9.23;;;6.40;;
8849;SDS011;5638;50.860;4.698;2022-11-13T03:12:40;9.77;;;6.50;;
8849;SDS011;5638;50.860;4.698;2022-11-13T03:15:06;9.03;;;6.70;;
8849;SDS011;5638;50.860;4.698;2022-11-13T03:17:33;8.60;;;6.73;;
8849;SDS011;5638;50.860;4.698;2022-11-13T03:19:59;8.40;;;6.20;;
8849;SDS011;5638;50.860;4.698;2022-11-13T03:22:26;9.80;;;6.43;;
8849;SDS011;5638;50.860;4.698;2022-11-13T03:24:52;8.40;;;6.07;;
8849;SDS011;5638;50.860;4.698;2022-11-13T03:27:18;7.60;;;6.17;;
8849;SDS011;5638;50.860;4.698;2022-11-13T03:29:44;9.27;;;5.80;;
8849;SDS011;5638;50.860;4.698;2022-11-13T03:32:09;8.33;;;6.57;;
8849;SDS011;5638;50.860;4.698;2022-11-13T03:34:35;8.33;;;5.60;;
8849;SDS011;5638;50.860;4.698;2022-11-13T03:37:02;5.73;;;4.60;;
8849;SDS011;5638;50.860;4.698;2022-11-13T03:39:28;7.40;;;5.30;;
8849;SDS011;5638;50.860;4.698;2022-11-13T03:41:54;7.60;;;5.10;;
8849;SDS011;5638;50.860;4.698;2022-11-13T03:44:20;6.17;;;4.73;;
8849;SDS011;5638;50.860;4.698;2022-11-13T03:46:45;5.90;;;4.47;;
8849;SDS011;5638;50.860;4.698;2022-11-13T03:49:11;5.87;;;5.00;;
8849;SDS011;5638;50.860;4.698;2022-11-13T03:51:37;5.90;;;4.90;;
8849;SDS011;5638;50.860;4.698;2022-11-13T03:54:03;9.30;;;4.67;;
8849;SDS011;5638;50.860;4.698;2022-11-13T03:56:29;8.53;;;4.53;;
8849;SDS011;5638;50.860;4.698;2022-11-13T03:58:55;6.20;;;4.57;;
8849;SDS011;5638;50.860;4.698;2022-11-13T04:01:20;9.93;;;5.23;;
8849;SDS011;5638;50.860;4.698;2022-11-13T04:03:46;5.07;;;4.13;;
8849;SDS011;5638;50.860;4.698;2022-11-13T04:06:12;4.93;;;4.43;;
8849;SDS011;5638;50.860;4.698;2022-11-13T04:08:39;5.80;;;4.50;;
8849;SDS011;5638;50.860;4.698;2022-11-13T04:11:08;6.30;;;4.47;;
8849;SDS011;5638;50.860;4.698;2022-11-13T04:13:37;5.37;;;4.27;;
8849;SDS011;5638;50.860;4.698;2022-11-13T04:16:03;5.83;;;4.70;;
8849;SDS011;5638;50.860;4.698;2022-11-13T04:18:30;5.80;;;4.23;;
8849;SDS011;5638;50.860;4.698;2022-11-13T04:21:00;6.47;;;4.73;;
8849;SDS011;5638;50.860;4.698;2022-11-13T04:23:28;7.40;;;4.40;;
8849;SDS011;5638;50.860;4.698;2022-11-13T04:25:54;5.63;;;4.47;;
8849;SDS011;5638;50.860;4.698;2022-11-13T04:28:20;8.03;;;5.00;;
8849;SDS011;5638;50.860;4.698;2022-11-13T04:30:46;7.03;;;4.50;;
8849;SDS011;5638;50.860;4.698;2022-11-13T04:33:13;6.37;;;4.60;;
8849;SDS011;5638;50.860;4.698;2022-11-13T04:35:39;7.30;;;4.60;;
8849;SDS011;5638;50.860;4.698;2022-11-13T04:38:09;7.40;;;5.07;;
8849;SDS011;5638;50.860;4.698;2022-11-13T04:40:37;6.83;;;5.40;;
8849;SDS011;5638;50.860;4.698;2022-11-13T04:43:03;6.70;;;5.37;;
8849;SDS011;5638;50.860;4.698;2022-11-13T04:45:29;8.40;;;5.37;;
8849;SDS011;5638;50.860;4.698;2022-11-13T04:47:55;5.57;;;4.97;;
8849;SDS011;5638;50.860;4.698;2022-11-13T04:50:21;7.97;;;5.47;;
8849;SDS011;5638;50.860;4.698;2022-11-13T04:52:47;8.03;;;6.23;;
8849;SDS011;5638;50.860;4.698;2022-11-13T04:55:13;7.87;;;6.47;;
8849;SDS011;5638;50.860;4.698;2022-11-13T04:57:39;8.80;;;6.70;;
8849;SDS011;5638;50.860;4.698;2022-11-13T05:00:06;8.63;;;7.00;;
8849;SDS011;5638;50.860;4.698;2022-11-13T05:02:34;9.13;;;7.17;;
8849;SDS011;5638;50.860;4.698;2022-11-13T05:05:00;8.97;;;7.40;;
8849;SDS011;5638;50.860;4.698;2022-11-13T05:07:26;9.53;;;7.53;;
8849;SDS011;5638;50.860;4.698;2022-11-13T05:09:52;9.03;;;7.00;;
8849;SDS011;5638;50.860;4.698;2022-11-13T05:12:18;9.33;;;6.90;;
8849;SDS011;5638;50.860;4.698;2022-11-13T05:14:44;9.37;;;7.27;;
8849;SDS011;5638;50.860;4.698;2022-11-13T05:17:10;9.60;;;6.90;;
8849;SDS011;5638;50.860;4.698;2022-11-13T05:19:37;8.83;;;7.00;;
8849;SDS011;5638;50.860;4.698;2022-11-13T05:22:04;13.63;;;7.83;;
8849;SDS011;5638;50.860;4.698;2022-11-13T05:24:30;9.10;;;7.00;;
8849;SDS011;5638;50.860;4.698;2022-11-13T05:26:56;8.73;;;7.10;;
8849;SDS011;5638;50.860;4.698;2022-11-13T05:29:22;8.20;;;6.90;;
8849;SDS011;5638;50.860;4.698;2022-11-13T05:31:48;9.17;;;7.53;;
8849;SDS011;5638;50.860;4.698;2022-11-13T05:34:14;10.83;;;7.40;;
8849;SDS011;5638;50.860;4.698;2022-11-13T05:36:40;10.17;;;6.90;;
8849;SDS011;5638;50.860;4.698;2022-11-13T05:39:06;9.87;;;6.93;;
8849;SDS011;5638;50.860;4.698;2022-11-13T05:41:32;9.70;;;7.47;;
8849;SDS011;5638;50.860;4.698;2022-11-13T05:43:58;8.30;;;6.77;;
8849;SDS011;5638;50.860;4.698;2022-11-13T05:46:25;8.10;;;6.80;;
8849;SDS011;5638;50.860;4.698;2022-11-13T05:48:56;8.83;;;6.43;;
8849;SDS011;5638;50.860;4.698;2022-11-13T05:51:28;10.03;;;6.80;;
8849;SDS011;5638;50.860;4.698;2022-11-13T05:53:57;9.23;;;6.33;;
8849;SDS011;5638;50.860;4.698;2022-11-13T05:56:27;11.17;;;6.53;;
8849;SDS011;5638;50.860;4.698;2022-11-13T05:58:58;6.43;;;5.17;;
8849;SDS011;5638;50.860;4.698;2022-11-13T06:01:27;7.07;;;5.70;;
8849;SDS011;5638;50.860;4.698;2022-11-13T06:04:04;10.17;;;4.83;;
8849;SDS011;5638;50.860;4.698;2022-11-13T06:06:32;6.90;;;5.20;;
8849;SDS011;5638;50.860;4.698;2022-11-13T06:09:00;10.93;;;5.77;;
8849;SDS011;5638;50.860;4.698;2022-11-13T06:11:28;6.00;;;5.00;;
8849;SDS011;5638;50.860;4.698;2022-11-13T06:13:55;6.40;;;4.60;;
8849;SDS011;5638;50.860;4.698;2022-11-13T06:16:24;8.33;;;5.07;;
8849;SDS011;5638;50.860;4.698;2022-11-13T06:18:54;5.30;;;4.63;;
8849;SDS011;5638;50.860;4.698;2022-11-13T06:21:23;6.03;;;4.37;;
8849;SDS011;5638;50.860;4.698;2022-11-13T06:23:53;5.70;;;4.23;;
8849;SDS011;5638;50.860;4.698;2022-11-13T06:26:21;6.13;;;4.70;;
8849;SDS011;5638;50.860;4.698;2022-11-13T06:28:53;5.80;;;4.20;;
8849;SDS011;5638;50.860;4.698;2022-11-13T06:31:21;6.47;;;4.73;;
8849;SDS011;5638;50.860;4.698;2022-11-13T06:33:51;5.97;;;3.97;;
8849;SDS011;5638;50.860;4.698;2022-11-13T06:36:22;5.37;;;4.53;;
8849;SDS011;5638;50.860;4.698;2022-11-13T06:38:51;5.83;;;4.87;;
8849;SDS011;5638;50.860;4.698;2022-11-13T06:41:18;7.07;;;4.93;;
8849;SDS011;5638;50.860;4.698;2022-11-13T06:43:46;6.37;;;4.37;;
8849;SDS011;5638;50.860;4.698;2022-11-13T06:46:16;5.40;;;4.30;;
8849;SDS011;5638;50.860;4.698;2022-11-13T06:48:48;5.13;;;4.43;;
8849;SDS011;5638;50.860;4.698;2022-11-13T06:51:19;5.17;;;4.63;;
8849;SDS011;5638;50.860;4.698;2022-11-13T06:53:48;5.23;;;4.00;;
8849;SDS011;5638;50.860;4.698;2022-11-13T06:56:14;6.77;;;3.97;;
8849;SDS011;5638;50.860;4.698;2022-11-13T06:58:41;7.57;;;4.00;;
8849;SDS011;5638;50.860;4.698;2022-11-13T07:01:15;5.63;;;4.03;;
8849;SDS011;5638;50.860;4.698;2022-11-13T07:03:44;5.23;;;4.27;;
8849;SDS011;5638;50.860;4.698;2022-11-13T07:06:12;6.30;;;4.80;;
8849;SDS011;5638;50.860;4.698;2022-11-13T07:08:46;6.30;;;4.60;;
8849;SDS011;5638;50.860;4.698;2022-11-13T07:11:14;5.23;;;4.47;;
8849;SDS011;5638;50.860;4.698;2022-11-13T07:13:43;5.17;;;4.47;;
8849;SDS011;5638;50.860;4.698;2022-11-13T07:16:09;6.17;;;4.67;;
8849;SDS011;5638;50.860;4.698;2022-11-13T07:18:37;4.77;;;4.27;;
8849;SDS011;5638;50.860;4.698;2022-11-13T07:21:08;5.57;;;4.63;;
8849;SDS011;5638;50.860;4.698;2022-11-13T07:23:36;5.90;;;4.47;;
8849;SDS011;5638;50.860;4.698;2022-11-13T07:26:10;6.03;;;4.57;;
8849;SDS011;5638;50.860;4.698;2022-11-13T07:28:36;7.17;;;4.30;;
8849;SDS011;5638;50.860;4.698;2022-11-13T07:31:03;5.50;;;4.23;;
8849;SDS011;5638;50.860;4.698;2022-11-13T07:33:30;8.00;;;4.80;;
8849;SDS011;5638;50.860;4.698;2022-11-13T07:35:56;5.40;;;4.27;;
8849;SDS011;5638;50.860;4.698;2022-11-13T07:38:23;4.83;;;3.60;;
8849;SDS011;5638;50.860;4.698;2022-11-13T07:40:49;6.23;;;4.63;;
8849;SDS011;5638;50.860;4.698;2022-11-13T07:43:15;5.20;;;4.27;;
8849;SDS011;5638;50.860;4.698;2022-11-13T07:45:42;5.60;;;4.37;;
8849;SDS011;5638;50.860;4.698;2022-11-13T07:48:08;7.33;;;4.83;;
8849;SDS011;5638;50.860;4.698;2022-11-13T07:50:35;5.93;;;4.80;;
8849;SDS011;5638;50.860;4.698;2022-11-13T07:53:04;6.07;;;5.00;;
8849;SDS011;5638;50.860;4.698;2022-11-13T07:55:33;6.17;;;5.10;;
8849;SDS011;5638;50.860;4.698;2022-11-13T07:58:00;7.00;;;4.67;;
8849;SDS011;5638;50.860;4.698;2022-11-13T08:00:27;6.70;;;5.37;;
8849;SDS011;5638;50.860;4.698;2022-11-13T08:02:55;7.47;;;4.77;;
8849;SDS011;5638;50.860;4.698;2022-11-13T08:05:21;8.67;;;5.30;;
8849;SDS011;5638;50.860;4.698;2022-11-13T08:07:48;8.17;;;5.47;;
8849;SDS011;5638;50.860;4.698;2022-11-13T08:10:16;7.67;;;5.33;;
8849;SDS011;5638;50.860;4.698;2022-11-13T08:12:44;6.80;;;5.47;;
8849;SDS011;5638;50.860;4.698;2022-11-13T08:15:11;6.27;;;5.37;;
8849;SDS011;5638;50.860;4.698;2022-11-13T08:17:37;8.40;;;5.63;;
8849;SDS011;5638;50.860;4.698;2022-11-13T08:20:04;7.13;;;6.07;;
8849;SDS011;5638;50.860;4.698;2022-11-13T08:22:32;10.03;;;7.40;;
8849;SDS011;5638;50.860;4.698;2022-11-13T08:24:58;9.97;;;7.30;;
8849;SDS011;5638;50.860;4.698;2022-11-13T08:27:24;12.10;;;8.50;;
8849;SDS011;5638;50.860;4.698;2022-11-13T08:29:50;12.67;;;7.37;;
8849;SDS011;5638;50.860;4.698;2022-11-13T08:32:17;10.17;;;7.67;;
8849;SDS011;5638;50.860;4.698;2022-11-13T08:34:43;10.57;;;6.97;;
8849;SDS011;5638;50.860;4.698;2022-11-13T08:37:09;9.00;;;7.00;;
8849;SDS011;5638;50.860;4.698;2022-11-13T08:39:36;10.20;;;7.77;;
8849;SDS011;5638;50.860;4.698;2022-11-13T08:42:02;10.03;;;7.27;;
8849;SDS011;5638;50.860;4.698;2022-11-13T08:44:29;9.23;;;7.03;;
8849;SDS011;5638;50.860;4.698;2022-11-13T08:46:56;9.97;;;7.33;;
8849;SDS011;5638;50.860;4.698;2022-11-13T08:49:22;11.67;;;7.30;;
8849;SDS011;5638;50.860;4.698;2022-11-13T08:51:48;7.83;;;6.90;;
8849;SDS011;5638;50.860;4.698;2022-11-13T08:54:14;8.70;;;6.70;;
8849;SDS011;5638;50.860;4.698;2022-11-13T08:56:40;10.17;;;7.50;;
8849;SDS011;5638;50.860;4.698;2022-11-13T08:59:08;18.50;;;11.03;;
8849;SDS011;5638;50.860;4.698;2022-11-13T09:01:34;21.23;;;12.27;;
8849;SDS011;5638;50.860;4.698;2022-11-13T09:04:00;22.27;;;12.13;;
8849;SDS011;5638;50.860;4.698;2022-11-13T09:06:26;18.33;;;10.57;;
8849;SDS011;5638;50.860;4.698;2022-11-13T09:08:52;16.23;;;10.27;;
8849;SDS011;5638;50.860;4.698;2022-11-13T09:11:18;17.03;;;11.07;;
8849;SDS011;5638;50.860;4.698;2022-11-13T09:13:45;14.40;;;9.53;;
8849;SDS011;5638;50.860;4.698;2022-11-13T09:16:10;9.87;;;7.17;;
8849;SDS011;5638;50.860;4.698;2022-11-13T09:18:36;11.53;;;7.13;;
8849;SDS011;5638;50.860;4.698;2022-11-13T09:21:02;9.67;;;7.00;;
8849;SDS011;5638;50.860;4.698;2022-11-13T09:23:28;9.63;;;6.83;;
8849;SDS011;5638;50.860;4.698;2022-11-13T09:25:55;8.67;;;6.23;;
8849;SDS011;5638;50.860;4.698;2022-11-13T09:28:21;8.27;;;6.53;;
8849;SDS011;5638;50.860;4.698;2022-11-13T09:30:47;8.47;;;6.50;;
8849;SDS011;5638;50.860;4.698;2022-11-13T09:33:12;11.23;;;7.50;;
8849;SDS011;5638;50.860;4.698;2022-11-13T09:35:39;30.60;;;16.97;;
8849;SDS011;5638;50.860;4.698;2022-11-13T09:38:07;33.10;;;17.17;;
8849;SDS011;5638;50.860;4.698;2022-11-13T09:46:11;10.67;;;6.60;;
8849;SDS011;5638;50.860;4.698;2022-11-13T09:49:16;9.97;;;6.23;;
8849;SDS011;5638;50.860;4.698;2022-11-13T09:51:50;9.23;;;6.30;;
8849;SDS011;5638;50.860;4.698;2022-11-13T09:54:20;9.33;;;6.03;;
8849;SDS011;5638;50.860;4.698;2022-11-13T09:59:52;7.90;;;6.10;;
8849;SDS011;5638;50.860;4.698;2022-11-13T10:08:42;7.27;;;5.13;;
8849;SDS011;5638;50.860;4.698;2022-11-13T10:14:20;6.37;;;4.67;;
8849;SDS011;5638;50.860;4.698;2022-11-13T10:16:58;5.67;;;4.20;;
8849;SDS011;5638;50.860;4.698;2022-11-13T10:25:19;5.37;;;4.20;;
8849;SDS011;5638;50.860;4.698;2022-11-13T10:27:58;7.07;;;4.50;;
8849;SDS011;5638;50.860;4.698;2022-11-13T10:30:26;5.17;;;4.20;;
8849;SDS011;5638;50.860;4.698;2022-11-13T10:32:53;8.93;;;4.63;;
8849;SDS011;5638;50.860;4.698;2022-11-13T10:40:46;4.73;;;4.00;;
8849;SDS011;5638;50.860;4.698;2022-11-13T10:43:14;5.23;;;4.10;;
8849;SDS011;5638;50.860;4.698;2022-11-13T10:46:00;5.50;;;3.90;;
8849;SDS011;5638;50.860;4.698;2022-11-13T10:48:31;5.80;;;4.30;;
8849;SDS011;5638;50.860;4.698;2022-11-13T10:51:01;4.40;;;3.80;;
8849;SDS011;5638;50.860;4.698;2022-11-13T10:53:47;6.00;;;4.23;;
8849;SDS011;5638;50.860;4.698;2022-11-13T10:59:09;6.93;;;5.03;;
8849;SDS011;5638;50.860;4.698;2022-11-13T11:01:38;4.70;;;4.20;;
8849;SDS011;5638;50.860;4.698;2022-11-13T11:04:11;5.43;;;4.70;;
8849;SDS011;5638;50.860;4.698;2022-11-13T11:06:44;7.90;;;4.50;;
8849;SDS011;5638;50.860;4.698;2022-11-13T11:11:57;5.90;;;4.00;;
8849;SDS011;5638;50.860;4.698;2022-11-13T11:20:00;6.23;;;4.50;;
8849;SDS011;5638;50.860;4.698;2022-11-13T11:22:47;5.50;;;4.00;;
8849;SDS011;5638;50.860;4.698;2022-11-13T11:25:42;6.30;;;3.93;;
8849;SDS011;5638;50.860;4.698;2022-11-13T11:31:02;4.47;;;3.17;;
8849;SDS011;5638;50.860;4.698;2022-11-13T11:33:38;5.00;;;3.93;;
8849;SDS011;5638;50.860;4.698;2022-11-13T11:36:29;5.80;;;3.80;;
8849;SDS011;5638;50.860;4.698;2022-11-13T11:41:45;4.53;;;3.37;;
8849;SDS011;5638;50.860;4.698;2022-11-13T11:47:13;4.37;;;3.53;;
8849;SDS011;5638;50.860;4.698;2022-11-13T11:49:42;4.67;;;3.70;;
8849;SDS011;5638;50.860;4.698;2022-11-13T11:57:48;4.03;;;3.47;;
8849;SDS011;5638;50.860;4.698;2022-11-13T12:00:56;6.10;;;3.40;;
8849;SDS011;5638;50.860;4.698;2022-11-13T12:04:31;5.00;;;3.33;;
8849;SDS011;5638;50.860;4.698;2022-11-13T12:10:26;4.33;;;3.83;;
8849;SDS011;5638;50.860;4.698;2022-11-13T12:13:31;3.90;;;3.40;;
8849;SDS011;5638;50.860;4.698;2022-11-13T12:21:27;5.03;;;3.80;;
8849;SDS011;5638;50.860;4.698;2022-11-13T12:24:27;5.27;;;3.50;;
8849;SDS011;5638;50.860;4.698;2022-11-13T12:27:33;4.23;;;3.20;;
8849;SDS011;5638;50.860;4.698;2022-11-13T12:30:33;3.93;;;3.10;;
8849;SDS011;5638;50.860;4.698;2022-11-13T12:36:19;3.87;;;2.73;;
8849;SDS011;5638;50.860;4.698;2022-11-13T12:38:48;4.07;;;2.67;;
8849;SDS011;5638;50.860;4.698;2022-11-13T12:44:39;3.47;;;2.77;;
8849;SDS011;5638;50.860;4.698;2022-11-13T12:47:21;4.20;;;3.20;;
8849;SDS011;5638;50.860;4.698;2022-11-13T12:49:56;3.90;;;2.60;;
8849;SDS011;5638;50.860;4.698;2022-11-13T12:52:27;3.57;;;2.77;;
8849;SDS011;5638;50.860;4.698;2022-11-13T12:55:02;3.27;;;2.77;;
8849;SDS011;5638;50.860;4.698;2022-11-13T12:57:50;3.07;;;2.63;;
8849;SDS011;5638;50.860;4.698;2022-11-13T13:00:26;3.17;;;2.77;;
8849;SDS011;5638;50.860;4.698;2022-11-13T13:03:06;4.77;;;2.80;;
8849;SDS011;5638;50.860;4.698;2022-11-13T13:06:08;3.90;;;2.43;;
8849;SDS011;5638;50.860;4.698;2022-11-13T13:11:37;3.03;;;2.47;;
8849;SDS011;5638;50.860;4.698;2022-11-13T13:14:24;5.70;;;2.67;;
8849;SDS011;5638;50.860;4.698;2022-11-13T13:17:19;3.37;;;2.33;;
8849;SDS011;5638;50.860;4.698;2022-11-13T13:22:54;3.10;;;2.80;;
8849;SDS011;5638;50.860;4.698;2022-11-13T13:25:26;3.03;;;2.73;;
8849;SDS011;5638;50.860;4.698;2022-11-13T13:27:59;3.80;;;2.73;;
8849;SDS011;5638;50.860;4.698;2022-11-13T13:30:27;3.73;;;2.60;;
8849;SDS011;5638;50.860;4.698;2022-11-13T13:38:48;3.60;;;2.97;;
8849;SDS011;5638;50.860;4.698;2022-11-13T13:41:44;4.90;;;3.13;;
8849;SDS011;5638;50.860;4.698;2022-11-13T13:44:37;4.33;;;3.13;;
8849;SDS011;5638;50.860;4.698;2022-11-13T13:49:56;4.67;;;3.27;;
8849;SDS011;5638;50.860;4.698;2022-11-13T13:52:24;4.17;;;3.20;;
8849;SDS011;5638;50.860;4.698;2022-11-13T13:54:57;4.37;;;3.30;;
8849;SDS011;5638;50.860;4.698;2022-11-13T13:57:30;5.70;;;3.80;;
8849;SDS011;5638;50.860;4.698;2022-11-13T13:59:56;4.63;;;3.77;;
8849;SDS011;5638;50.860;4.698;2022-11-13T14:02:22;5.70;;;3.60;;
8849;SDS011;5638;50.860;4.698;2022-11-13T14:04:50;4.40;;;3.33;;
8849;SDS011;5638;50.860;4.698;2022-11-13T14:09:48;3.83;;;3.00;;
8849;SDS011;5638;50.860;4.698;2022-11-13T14:12:27;3.87;;;3.40;;
8849;SDS011;5638;50.860;4.698;2022-11-13T14:14:53;4.43;;;3.20;;
8849;SDS011;5638;50.860;4.698;2022-11-13T14:17:22;4.93;;;3.47;;
8849;SDS011;5638;50.860;4.698;2022-11-13T14:19:50;5.47;;;3.30;;
8849;SDS011;5638;50.860;4.698;2022-11-13T14:22:18;5.00;;;3.40;;
8849;SDS011;5638;50.860;4.698;2022-11-13T14:24:47;4.17;;;3.20;;
8849;SDS011;5638;50.860;4.698;2022-11-13T14:27:22;3.80;;;3.07;;
8849;SDS011;5638;50.860;4.698;2022-11-13T14:29:52;4.40;;;3.37;;
8849;SDS011;5638;50.860;4.698;2022-11-13T14:32:30;5.87;;;3.80;;
8849;SDS011;5638;50.860;4.698;2022-11-13T14:35:04;4.17;;;3.27;;
8849;SDS011;5638;50.860;4.698;2022-11-13T14:37:38;5.50;;;3.50;;
8849;SDS011;5638;50.860;4.698;2022-11-13T14:40:24;3.90;;;3.47;;
8849;SDS011;5638;50.860;4.698;2022-11-13T14:42:57;4.77;;;3.23;;
8849;SDS011;5638;50.860;4.698;2022-11-13T14:45:30;5.30;;;3.90;;
8849;SDS011;5638;50.860;4.698;2022-11-13T14:47:58;4.43;;;3.50;;
8849;SDS011;5638;50.860;4.698;2022-11-13T14:50:28;7.70;;;3.57;;
8849;SDS011;5638;50.860;4.698;2022-11-13T14:53:02;6.57;;;3.93;;
8849;SDS011;5638;50.860;4.698;2022-11-13T14:55:53;4.17;;;3.60;;
8849;SDS011;5638;50.860;4.698;2022-11-13T15:00:58;5.37;;;3.90;;
8849;SDS011;5638;50.860;4.698;2022-11-13T15:03:40;4.47;;;3.67;;
8849;SDS011;5638;50.860;4.698;2022-11-13T15:06:11;5.00;;;3.67;;
8849;SDS011;5638;50.860;4.698;2022-11-13T15:08:44;5.10;;;3.73;;
8849;SDS011;5638;50.860;4.698;2022-11-13T15:11:15;6.20;;;3.80;;
8849;SDS011;5638;50.860;4.698;2022-11-13T15:13:44;5.73;;;3.37;;
8849;SDS011;5638;50.860;4.698;2022-11-13T15:16:14;4.63;;;3.73;;
8849;SDS011;5638;50.860;4.698;2022-11-13T15:19:33;5.37;;;3.80;;
8849;SDS011;5638;50.860;4.698;2022-11-13T15:21:45;6.73;;;4.20;;
8849;SDS011;5638;50.860;4.698;2022-11-13T15:24:12;5.17;;;3.80;;
8849;SDS011;5638;50.860;4.698;2022-11-13T15:26:38;6.20;;;4.00;;
8849;SDS011;5638;50.860;4.698;2022-11-13T15:29:05;5.80;;;3.90;;
8849;SDS011;5638;50.860;4.698;2022-11-13T15:31:32;5.73;;;4.10;;
8849;SDS011;5638;50.860;4.698;2022-11-13T15:34:02;4.20;;;3.47;;
8849;SDS011;5638;50.860;4.698;2022-11-13T15:36:29;4.50;;;3.77;;
8849;SDS011;5638;50.860;4.698;2022-11-13T15:38:55;6.23;;;3.97;;
8849;SDS011;5638;50.860;4.698;2022-11-13T15:41:23;4.57;;;3.67;;
8849;SDS011;5638;50.860;4.698;2022-11-13T15:43:52;4.00;;;3.60;;
8849;SDS011;5638;50.860;4.698;2022-11-13T15:46:21;5.27;;;4.00;;
8849;SDS011;5638;50.860;4.698;2022-11-13T15:48:48;7.40;;;4.00;;
8849;SDS011;5638;50.860;4.698;2022-11-13T15:51:19;5.73;;;4.40;;
8849;SDS011;5638;50.860;4.698;2022-11-13T15:54:04;6.47;;;4.23;;
8849;SDS011;5638;50.860;4.698;2022-11-13T15:56:46;7.10;;;4.57;;
8849;SDS011;5638;50.860;4.698;2022-11-13T15:59:12;5.50;;;4.10;;
8849;SDS011;5638;50.860;4.698;2022-11-13T16:01:39;8.17;;;4.57;;
8849;SDS011;5638;50.860;4.698;2022-11-13T16:04:06;7.60;;;4.47;;
8849;SDS011;5638;50.860;4.698;2022-11-13T16:06:32;6.00;;;4.60;;
8849;SDS011;5638;50.860;4.698;2022-11-13T16:09:00;7.13;;;5.13;;
8849;SDS011;5638;50.860;4.698;2022-11-13T16:11:31;6.63;;;4.67;;
8849;SDS011;5638;50.860;4.698;2022-11-13T16:13:58;8.53;;;5.10;;
8849;SDS011;5638;50.860;4.698;2022-11-13T16:16:25;7.37;;;5.07;;
8849;SDS011;5638;50.860;4.698;2022-11-13T16:19:03;6.67;;;4.63;;
8849;SDS011;5638;50.860;4.698;2022-11-13T16:21:47;6.87;;;4.83;;
8849;SDS011;5638;50.860;4.698;2022-11-13T16:24:14;7.27;;;5.07;;
8849;SDS011;5638;50.860;4.698;2022-11-13T16:26:40;8.17;;;5.17;;
8849;SDS011;5638;50.860;4.698;2022-11-13T16:29:18;6.60;;;4.67;;
8849;SDS011;5638;50.860;4.698;2022-11-13T16:31:46;6.83;;;4.37;;
8849;SDS011;5638;50.860;4.698;2022-11-13T16:34:12;7.77;;;4.30;;
8849;SDS011;5638;50.860;4.698;2022-11-13T16:36:38;6.73;;;4.73;;
8849;SDS011;5638;50.860;4.698;2022-11-13T16:39:05;6.93;;;4.83;;
8849;SDS011;5638;50.860;4.698;2022-11-13T16:41:33;7.07;;;4.90;;
8849;SDS011;5638;50.860;4.698;2022-11-13T16:44:00;7.80;;;4.77;;
8849;SDS011;5638;50.860;4.698;2022-11-13T16:46:33;6.67;;;4.67;;
8849;SDS011;5638;50.860;4.698;2022-11-13T16:49:10;6.57;;;4.67;;
8849;SDS011;5638;50.860;4.698;2022-11-13T16:51:40;6.83;;;4.40;;
8849;SDS011;5638;50.860;4.698;2022-11-13T16:54:06;6.53;;;4.60;;
8849;SDS011;5638;50.860;4.698;2022-11-13T16:56:32;7.80;;;4.60;;
8849;SDS011;5638;50.860;4.698;2022-11-13T16:58:58;6.97;;;4.80;;
8849;SDS011;5638;50.860;4.698;2022-11-13T17:01:24;7.93;;;4.67;;
8849;SDS011;5638;50.860;4.698;2022-11-13T17:03:50;5.53;;;4.27;;
8849;SDS011;5638;50.860;4.698;2022-11-13T17:06:27;6.57;;;4.37;;